• Join FlightAware (Why Join?)
  • Login
  • US Flag 
04:00PM EDT


 

Airport Tracker/Info


-or-


 

Live Flight TrackerFlight Track Log ✈ SWA1095 ✈ 20-Apr-2013 ✈ KISP - KPBI

Flight Track Log - Related Links

Times and Time Zones

All times are in EDT time to prevent confusion due to time zone crossing. See the SWA1095 flight status page for this flight to view local times or setup timezone preferences in your user account.

Time Position Orientation Groundspeed Altitude Reporting Facility
EDT Latitude Longitude Course Direction KTS MPH feet Rate Location/Type
01:15PM 40.7333 -73.0833 131° Southeast 251 289 3,900  Level New York TRACON
01:16PM 40.7500 -72.9833 78° East 279 321 5,000 1,440 Climbing New York TRACON
01:18PM 40.7328 -72.7522 96° East 301 346 8,400 1,620 Climbing Boston Center
01:19PM 40.6747 -72.6864 139° Southeast 275 316 10,100 1,320 Climbing Boston Center
01:20PM 40.6100 -72.6506 157° South 332 382 11,100 2,280 Climbing Boston Center
01:21PM 40.5019 -72.5711 151° Southeast 355 409 14,700 3,300 Climbing Boston Center
01:22PM 40.4225 -72.6256 208° Southwest 296 341 17,700 2,880 Climbing Boston Center
01:23PM 40.3536 -72.7042 221° Southwest 296 341 20,500 2,640 Climbing Boston Center
01:24PM 40.2908 -72.7883 226° Southwest 315 362 23,000 2,220 Climbing Boston Center
01:25PM 40.2219 -72.8722 223° Southwest 332 382 25,000 1,680 Climbing Boston Center
01:27PM 40.0539 -73.0869 224° Southwest 344 396 29,000 1,440 Climbing Washington Center
01:28PM 39.9869 -73.1706 224° Southwest 344 396 30,000 480 Climbing Washington Center
01:29PM 39.9178 -73.2569 224° Southwest 344 396 30,000  Level Washington Center
01:30PM 39.8486 -73.3403 223° Southwest 344 396 30,000  Level Washington Center
01:31PM 39.7731 -73.4317 223° Southwest 344 396 30,000  Level Washington Center
01:32PM 39.7058 -73.5147 224° Southwest 344 396 30,000  Level Washington Center
01:33PM 39.6322 -73.6003 222° Southwest 344 396 30,000  Level Washington Center
01:34PM 39.5692 -73.6828 225° Southwest 344 396 30,000  Level Washington Center
01:35PM 39.5017 -73.7653 223° Southwest 344 396 30,000  Level Washington Center
01:36PM 39.4403 -73.8394 223° Southwest 344 396 30,000  Level Washington Center
01:37PM 39.3706 -73.9217 222° Southwest 344 396 30,000  Level Washington Center
01:38PM 39.3028 -74.0064 224° Southwest 344 396 30,000  Level Washington Center
01:39PM 39.2331 -74.0883 222° Southwest 344 396 30,000  Level Washington Center
01:40PM 39.1653 -74.1700 223° Southwest 344 396 30,000  Level Washington Center
01:41PM 39.0953 -74.2544 223° Southwest 344 396 30,000  Level Washington Center
01:42PM 39.0294 -74.3331 223° Southwest 344 396 30,000  Level Washington Center
01:43PM 38.9575 -74.4197 223° Southwest 344 396 30,000  Level Washington Center
01:44PM 38.8894 -74.4981 222° Southwest 344 396 30,000  Level Washington Center
01:45PM 38.8192 -74.5792 222° Southwest 344 396 30,000  Level Washington Center
01:46PM 38.7511 -74.6628 224° Southwest 344 396 30,000  Level Washington Center
01:47PM 38.6789 -74.7461 222° Southwest 344 396 30,000  Level Washington Center
01:48PM 38.6106 -74.8267 223° Southwest 344 396 30,000  Level Washington Center
01:49PM 38.5422 -74.9069 223° Southwest 344 396 30,000  Level Washington Center
01:50PM 38.4717 -74.9869 222° Southwest 344 396 30,000  Level Washington Center
01:51PM 38.4033 -75.0644 222° Southwest 344 396 30,000  Level Washington Center
01:52PM 38.3328 -75.1497 223° Southwest 344 396 30,000 1,320 Level Washington Center
01:53PM 38.2622 -75.2347 223° Southwest 338 389 32,700 1,980 Climbing Washington Center
01:54PM 38.2000 -75.3064 222° Southwest 326 375 34,000 600 Climbing Washington Center
01:55PM 38.1186 -75.3622 208° Southwest 326 375 34,000  Level Washington Center
01:56PM 38.0333 -75.4125 205° Southwest 331 381 34,000  Level Washington Center
01:57PM 37.9500 -75.4681 208° Southwest 336 387 34,000  Level Washington Center
01:58PM 37.8644 -75.5156 204° Southwest 342 394 34,000 600 Level Washington Center
01:59PM 37.7789 -75.5708 207° Southwest 342 394 35,300 1,320 Climbing Washington Center
02:00PM 37.6975 -75.6206 206° Southwest 342 394 36,700 1,200 Climbing Washington Center
02:01PM 37.6142 -75.6706 205° Southwest 342 394 37,800 600 Climbing Washington Center
02:02PM 37.5328 -75.7228 207° Southwest 342 394 38,000 60 Climbing Washington Center
02:03PM 37.4492 -75.7722 205° Southwest 342 394 38,000  Level Washington Center
02:04PM 37.3658 -75.8219 205° Southwest 342 394 38,000  Level Washington Center
02:05PM 37.2803 -75.8736 206° Southwest 342 394 38,000  Level Washington Center
02:06PM 37.1967 -75.9256 206° Southwest 337 388 38,000 -60 Level Washington Center
02:07PM 37.1150 -75.9747 206° Southwest 337 388 37,900  Descending Washington Center
02:08PM 37.0314 -76.0264 206° Southwest 337 388 38,000  Climbing Washington Center
02:09PM 36.9436 -76.0728 203° Southwest 342 394 38,000  Level Washington Center
02:10PM 36.8581 -76.1242 206° Southwest 342 394 38,000  Level Washington Center
02:11PM 36.7742 -76.1728 205° Southwest 342 394 38,000  Level Washington Center
02:12PM 36.6883 -76.2292 208° Southwest 342 394 38,000  Level Washington Center
02:13PM 36.6111 -76.2750 205° Southwest 342 394 38,000  Level Washington Center
02:14PM 36.5253 -76.3261 206° Southwest 342 394 38,000 -60 Level Washington Center
02:15PM 36.4392 -76.3769 205° Southwest 342 394 37,900  Descending Washington Center
02:16PM 36.3533 -76.4250 204° Southwest 342 394 38,000  Climbing Washington Center
02:17PM 36.2697 -76.4756 206° Southwest 342 394 38,000  Level Washington Center
02:18PM 36.1836 -76.5261 205° Southwest 342 394 38,000  Level Washington Center
02:19PM 36.0997 -76.5767 206° Southwest 342 394 38,000  Level Washington Center
02:20PM 36.0117 -76.6269 205° Southwest 342 394 38,000 -60 Level Washington Center
02:21PM 35.9258 -76.6769 205° Southwest 347 399 37,900  Descending Washington Center
02:22PM 35.8397 -76.7244 204° Southwest 347 399 38,000  Climbing Washington Center
02:23PM 35.7517 -76.7769 206° Southwest 347 399 38,000  Level Washington Center
02:24PM 35.6636 -76.8242 204° Southwest 342 394 38,000  Level Washington Center
02:25PM 35.5817 -76.8767 208° Southwest 342 394 38,000  Level Washington Center
02:26PM 35.4956 -76.9264 205° Southwest 342 394 38,000  Level Washington Center
02:27PM 35.4808 -76.9340 205° Southwest  Level FlightAware Approximate
02:27PM 35.4072 -76.9758 205° Southwest 347 399 38,000  Level Washington Center
02:28PM 35.3067 -77.0225 201° Southwest 347 399 38,000  Level Washington Center
02:29PM 35.2103 -77.0589 197° South 352 405 38,000  Level Washington Center
02:30PM 35.1117 -77.0953 197° South 358 412 38,000  Level Washington Center
02:31PM 35.0175 -77.1314 197° South 369 425 38,000  Level Washington Center
02:32PM 34.9167 -77.1675 196° South 369 425 38,000  Level Washington Center
02:33PM 34.8222 -77.2061 199° South 364 419 38,000  Level Washington Center
02:34PM 34.7239 -77.2422 197° South 370 426 38,000  Level Washington Center
02:35PM 34.6272 -77.2781 197° South 370 426 38,000  Level Washington Center
02:36PM 34.5308 -77.3164 198° South 370 426 38,000  Level Washington Center
02:38PM 34.3378 -77.3858 197° South 376 433 38,000  Level Jacksonville Center
02:39PM 34.2394 -77.4247 198° South 376 433 38,000 -300 Level Jacksonville Center
02:40PM 34.1344 -77.4589 195° South 376 433 37,500 -1,020 Descending Jacksonville Center
02:41PM 34.0358 -77.4950 197° South 376 433 36,000 -1,800 Descending Jacksonville Center
02:42PM 33.9436 -77.5283 197° South 376 433 33,900 -2,100 Descending Jacksonville Center
02:43PM 33.8386 -77.5672 197° South 381 438 31,900 -1,500 Descending Jacksonville Center
02:44PM 33.7361 -77.6058 197° South 381 438 31,000 -1,020 Descending Jacksonville Center
02:45PM 33.6208 -77.6478 197° South 387 445 29,900 -540 Descending Jacksonville Center
02:46PM 33.5183 -77.6861 197° South 394 453 30,000  Climbing Jacksonville Center
02:47PM 33.4111 -77.7222 196° South 394 453 30,000  Level Jacksonville Center
02:48PM 33.3064 -77.7606 197° South 394 453 30,000  Level Jacksonville Center
02:49PM 33.2014 -77.7989 197° South 394 453 30,000  Level Jacksonville Center
02:50PM 33.0944 -77.8372 197° South 394 453 30,000  Level Jacksonville Center
02:51PM 32.9875 -77.8756 197° South 394 453 30,000  Level Jacksonville Center
02:52PM 32.8806 -77.9111 196° South 394 453 30,000  Level Jacksonville Center
02:53PM 32.7714 -77.9492 196° South 400 460 30,000  Level Jacksonville Center
02:54PM 32.6644 -77.9897 198° South 400 460 30,000  Level Jacksonville Center
02:55PM 32.5572 -78.0275 197° South 405 466 30,000  Level Jacksonville Center
02:56PM 32.4483 -78.0678 197° South 405 466 30,000  Level Jacksonville Center
02:57PM 32.3392 -78.1056 196° South 410 472 30,000  Level Jacksonville Center
02:58PM 32.2297 -78.1408 195° South 415 478 30,000  Level Jacksonville Center
02:59PM 32.1228 -78.1831 198° South 415 478 30,000  Level Jacksonville Center
03:00PM 32.0136 -78.2206 196° South 415 478 30,000  Level Jacksonville Center
03:01PM 31.9022 -78.2606 197° South 415 478 30,000  Level Jacksonville Center
03:02PM 31.7931 -78.3000 197° South 415 478 30,000  Level Jacksonville Center
03:03PM 31.6839 -78.3372 196° South 415 478 30,000  Level Jacksonville Center
03:04PM 31.5747 -78.3767 197° South 410 472 30,000  Level Jacksonville Center
03:05PM 31.4675 -78.4136 196° South 410 472 30,000  Level Jacksonville Center
03:06PM 31.3561 -78.4531 197° South 416 479 30,000  Level Jacksonville Center
03:07PM 31.2486 -78.4872 195° South 416 479 30,000  Level Jacksonville Center
03:08PM 31.1372 -78.5264 197° South 416 479 30,000  Level Jacksonville Center
03:09PM 31.0303 -78.5678 198° South 416 479 30,000  Level Jacksonville Center
03:10PM 30.9039 -78.5978 192° South 424 488 30,000  Level Jacksonville Center
03:11PM 30.8092 -78.6383 200° South 409 471 30,000  Level Jacksonville Center
03:12PM 30.7019 -78.6769 197° South 409 471 30,000  Level Jacksonville Center
03:14PM 30.5892 -78.7131 195° South 419 482 30,000  Level Miami Center
03:15PM 30.4844 -78.7519 198° South 412 474 30,000  Level Miami Center
03:16PM 30.3756 -78.7886 196° South 407 468 30,000  Level Miami Center
03:17PM 30.2667 -78.8297 198° South 407 468 30,000  Level Miami Center
03:18PM 30.1619 -78.8686 198° South 397 457 30,000  Level Miami Center
03:19PM 30.0531 -78.9050 196° South 404 465 30,000  Level Miami Center
03:20PM 29.9378 -78.9506 199° South 403 464 30,000  Level Miami Center
03:21PM 29.8328 -78.9942 200° South 408 470 30,000  Level Miami Center
03:22PM 29.7200 -79.0133 188° South 408 470 30,000  Level Miami Center
03:23PM 29.6069 -79.0325 188° South 408 470 30,000 -300 Level Miami Center
03:24PM 29.4939 -79.0567 191° South 418 481 29,400 -1,440 Descending Miami Center
03:25PM 29.3811 -79.0756 188° South 418 481 27,200 -2,160 Descending Miami Center
03:26PM 29.2744 -79.0950 189° South 406 467 25,100 -1,140 Descending Miami Center
03:27PM 29.1697 -79.1142 189° South 394 453 25,000 -60 Descending Miami Center
03:28PM 29.0672 -79.1336 189° South 388 447 25,000  Level Miami Center
03:29PM 28.9606 -79.1550 190° South 390 449 25,000  Level Miami Center
03:30PM 28.8497 -79.1694 187° South 393 452 25,000  Level Miami Center
03:31PM 28.7431 -79.1908 190° South 393 452 25,000  Level Miami Center
03:32PM 28.6361 -79.2097 189° South 393 452 25,000  Level Miami Center
03:33PM 28.5272 -79.2289 189° South 393 452 25,000  Level Miami Center
03:34PM 28.4186 -79.2478 189° South 393 452 25,000  Level Miami Center
03:35PM 28.3097 -79.2689 190° South 393 452 25,000  Level Miami Center
03:36PM 28.2008 -79.2903 190° South 393 452 25,000  Level Miami Center
03:37PM 28.1039 -79.3422 205° Southwest 387 445 25,000  Level Miami Center
03:38PM 28.0047 -79.3967 206° Southwest 392 451 25,000 -180 Level Miami Center
03:39PM 27.9078 -79.4508 206° Southwest 392 451 24,700 -1,200 Descending Miami Center
03:40PM 27.8169 -79.5050 208° Southwest 380 437 22,700 -2,040 Descending Miami Center
03:41PM 27.7369 -79.5503 207° Southwest 368 423 20,700 -2,220 Descending Miami Center
03:42PM 27.6378 -79.6042 206° Southwest 368 423 18,300 -2,100 Descending Miami Center
03:43PM 27.5533 -79.6514 206° Southwest 358 412 16,500 -1,920 Descending Miami Center
03:44PM 27.4667 -79.6983 206° Southwest 347 399 14,500 -1,980 Descending Miami Center
03:45PM 27.3844 -79.7453 207° Southwest 342 394 12,600 -1,920 Descending Miami Center
03:46PM 27.3106 -79.7856 206° Southwest 336 387 10,700 -1,500 Descending Miami Center
03:47PM 27.2281 -79.8303 206° Southwest 316 364 9,600 -1,320 Descending Miami Center
03:48PM 27.1542 -79.8706 206° Southwest 297 342 8,100 -960 Descending Miami Center
03:49PM 27.0867 -79.9083 206° Southwest 278 320 7,700 -900 Descending Miami Center
03:50PM 27.0275 -79.9417 207° Southwest 273 314 6,300 -1,200 Descending Miami Center
03:51PM 26.9619 -79.9819 209° Southwest 267 307 5,300 -1,140 Descending Miami Center
03:52PM 26.8958 -80.0361 216° Southwest 272 313 4,100 -660 Descending Miami Center
03:53PM 26.8386 -80.0833 216° Southwest 272 313 4,000 -60 Descending Miami Center
03:54PM 26.8058 -80.1406 237° Southwest 229 264 4,000  Level Miami Center
03:56PM 26.6832 -80.0956 270° West  Level Estimated
04:03PM 26.6832 -80.0956 110° East  Level Estimated
04:04PM 26.6832 -80.0956 110° East  Level Estimated
04:05PM 26.6832 -80.0956 110° East  Level Estimated
04:06PM 26.6832 -80.0956 110° East  Level Estimated
04:07PM 26.6832 -80.0956 110° East  Level Estimated
04:08PM 26.6832 -80.0956 110° East  Level Estimated
04:09PM 26.6832 -80.0956 110° East  Level Estimated
04:10PM 26.6832 -80.0956 110° East  Level Estimated
04:11PM 26.6832 -80.0956 110° East  Level Estimated
04:12PM 26.6832 -80.0956 110° East  Level Estimated